sensor_id;sensor_type;location;lat;lon;timestamp;pressure;altitude;pressure_sealevel;temperature;humidity
3697;BME280;60662;48.810;8.872;2023-12-20T08:31:57;96853.97;;;4.01;100.00
3697;BME280;60662;48.810;8.872;2023-12-20T08:33:01;96848.75;;;5.05;98.01
3697;BME280;60662;48.810;8.872;2023-12-20T08:34:04;96841.94;;;5.83;93.08
3697;BME280;60662;48.810;8.872;2023-12-20T08:35:07;96853.38;;;6.49;88.26
3697;BME280;60662;48.810;8.872;2023-12-20T08:36:10;96839.31;;;6.58;85.16
3697;BME280;60662;48.810;8.872;2023-12-20T08:37:14;96844.34;;;6.97;82.98
3697;BME280;60662;48.810;8.872;2023-12-20T08:38:16;96849.31;;;7.37;81.65
3697;BME280;60662;48.810;8.872;2023-12-20T08:39:18;96852.28;;;7.24;80.33
3697;BME280;60662;48.810;8.872;2023-12-20T08:40:20;96856.31;;;7.34;80.76
3697;BME280;60662;48.810;8.872;2023-12-20T08:41:21;96861.59;;;7.61;79.46
3697;BME280;60662;48.810;8.872;2023-12-20T08:42:23;96868.50;;;7.62;78.06
3697;BME280;60662;48.810;8.872;2023-12-20T08:43:26;96862.53;;;7.59;78.35
3697;BME280;60662;48.810;8.872;2023-12-20T08:44:27;96864.78;;;7.71;77.18
3697;BME280;60662;48.810;8.872;2023-12-20T08:45:29;96859.41;;;8.06;76.37
3697;BME280;60662;48.810;8.872;2023-12-20T08:46:30;96865.25;;;7.84;75.92
3697;BME280;60662;48.810;8.872;2023-12-20T08:47:32;96857.53;;;8.64;75.21
3697;BME280;60662;48.810;8.872;2023-12-20T08:48:33;96874.63;;;8.98;73.21
3697;BME280;60662;48.810;8.872;2023-12-20T08:49:35;96867.88;;;8.93;73.49
3697;BME280;60662;48.810;8.872;2023-12-20T08:50:37;96860.44;;;9.07;73.16
3697;BME280;60662;48.810;8.872;2023-12-20T08:51:39;96861.72;;;8.95;72.03
3697;BME280;60662;48.810;8.872;2023-12-20T08:52:42;96859.41;;;9.60;70.59
3697;BME280;60662;48.810;8.872;2023-12-20T08:53:43;96860.28;;;9.59;70.27
3697;BME280;60662;48.810;8.872;2023-12-20T08:54:47;96849.16;;;9.32;70.11
3697;BME280;60662;48.810;8.872;2023-12-20T08:55:49;96860.19;;;9.62;69.33
3697;BME280;60662;48.810;8.872;2023-12-20T08:56:50;96850.88;;;9.79;68.80
3697;BME280;60662;48.810;8.872;2023-12-20T08:57:52;96851.41;;;9.65;67.98
3697;BME280;60662;48.810;8.872;2023-12-20T08:58:53;96851.22;;;9.70;69.73
3697;BME280;60662;48.810;8.872;2023-12-20T08:59:55;96857.38;;;10.57;68.33
3697;BME280;60662;48.810;8.872;2023-12-20T09:00:56;96850.16;;;10.85;65.79
3697;BME280;60662;48.810;8.872;2023-12-20T09:01:59;96851.25;;;10.79;66.39
3697;BME280;60662;48.810;8.872;2023-12-20T09:03:01;96854.53;;;9.51;67.15
3697;BME280;60662;48.810;8.872;2023-12-20T09:04:03;96863.06;;;9.55;68.24
3697;BME280;60662;48.810;8.872;2023-12-20T09:05:05;96858.78;;;10.00;67.94
3697;BME280;60662;48.810;8.872;2023-12-20T09:06:07;96848.63;;;10.38;66.65
3697;BME280;60662;48.810;8.872;2023-12-20T09:07:28;96862.28;;;10.21;66.58
3697;BME280;60662;48.810;8.872;2023-12-20T09:08:32;96863.75;;;10.06;66.21
3697;BME280;60662;48.810;8.872;2023-12-20T09:09:33;96851.06;;;10.63;65.63
3697;BME280;60662;48.810;8.872;2023-12-20T09:10:35;96854.84;;;10.34;64.30
3697;BME280;60662;48.810;8.872;2023-12-20T09:11:36;96853.59;;;10.44;64.99
3697;BME280;60662;48.810;8.872;2023-12-20T09:12:38;96856.94;;;10.89;63.70
3697;BME280;60662;48.810;8.872;2023-12-20T09:13:42;96855.16;;;10.26;64.69
3697;BME280;60662;48.810;8.872;2023-12-20T09:14:43;96855.16;;;10.26;65.25
3697;BME280;60662;48.810;8.872;2023-12-20T09:15:45;96852.78;;;10.42;64.80
3697;BME280;60662;48.810;8.872;2023-12-20T09:16:46;96852.13;;;10.59;63.21
3697;BME280;60662;48.810;8.872;2023-12-20T09:17:48;96843.50;;;10.77;63.47
3697;BME280;60662;48.810;8.872;2023-12-20T09:18:50;96842.22;;;11.27;62.20
3697;BME280;60662;48.810;8.872;2023-12-20T09:19:53;96839.63;;;10.86;62.06
3697;BME280;60662;48.810;8.872;2023-12-20T09:20:55;96832.16;;;10.36;62.92
3697;BME280;60662;48.810;8.872;2023-12-20T09:21:57;96839.50;;;10.69;62.76
3697;BME280;60662;48.810;8.872;2023-12-20T09:22:58;96839.81;;;9.72;64.11
3697;BME280;60662;48.810;8.872;2023-12-20T09:24:00;96838.44;;;10.08;64.15
3697;BME280;60662;48.810;8.872;2023-12-20T09:25:01;96833.75;;;9.72;63.97
3697;BME280;60662;48.810;8.872;2023-12-20T09:26:05;96831.91;;;9.28;64.59
3697;BME280;60662;48.810;8.872;2023-12-20T09:27:07;96839.31;;;9.15;65.22
3697;BME280;60662;48.810;8.872;2023-12-20T09:28:09;96842.03;;;9.12;66.49
3697;BME280;60662;48.810;8.872;2023-12-20T09:29:10;96845.34;;;9.41;65.01
3697;BME280;60662;48.810;8.872;2023-12-20T09:30:16;96839.22;;;9.66;65.14
3697;BME280;60662;48.810;8.872;2023-12-20T09:31:28;96839.19;;;9.89;64.60
3697;BME280;60662;48.810;8.872;2023-12-20T09:32:29;96844.06;;;9.75;65.36
3697;BME280;60662;48.810;8.872;2023-12-20T09:33:31;96840.53;;;9.30;64.83
3697;BME280;60662;48.810;8.872;2023-12-20T09:34:33;96841.34;;;9.30;65.46
3697;BME280;60662;48.810;8.872;2023-12-20T09:35:35;96841.28;;;9.57;65.51
3697;BME280;60662;48.810;8.872;2023-12-20T09:36:37;96846.28;;;10.08;65.03
3697;BME280;60662;48.810;8.872;2023-12-20T09:37:41;96841.06;;;9.86;63.91
3697;BME280;60662;48.810;8.872;2023-12-20T09:38:46;96833.53;;;9.78;63.97
3697;BME280;60662;48.810;8.872;2023-12-20T09:39:48;96852.47;;;9.59;64.97
3697;BME280;60662;48.810;8.872;2023-12-20T09:40:49;96847.75;;;10.37;63.16
3697;BME280;60662;48.810;8.872;2023-12-20T09:42:00;96851.88;;;10.43;62.78
3697;BME280;60662;48.810;8.872;2023-12-20T09:44:03;96853.56;;;9.30;64.78
3697;BME280;60662;48.810;8.872;2023-12-20T09:45:08;96857.44;;;10.11;64.16
3697;BME280;60662;48.810;8.872;2023-12-20T09:46:11;96861.59;;;8.46;65.45
3697;BME280;60662;48.810;8.872;2023-12-20T09:47:14;96861.16;;;7.15;70.95
3697;BME280;60662;48.810;8.872;2023-12-20T09:48:18;96859.09;;;6.62;73.12
3697;BME280;60662;48.810;8.872;2023-12-20T09:49:21;96864.91;;;6.00;75.44
3697;BME280;60662;48.810;8.872;2023-12-20T09:50:23;96862.13;;;5.68;76.39
3697;BME280;60662;48.810;8.872;2023-12-20T09:51:26;96865.28;;;5.40;77.88
3697;BME280;60662;48.810;8.872;2023-12-20T09:52:29;96853.06;;;5.05;78.90
3697;BME280;60662;48.810;8.872;2023-12-20T09:53:32;96856.63;;;4.99;81.13
3697;BME280;60662;48.810;8.872;2023-12-20T09:54:37;96857.19;;;4.67;80.59
3697;BME280;60662;48.810;8.872;2023-12-20T09:55:41;96871.09;;;4.63;82.69
3697;BME280;60662;48.810;8.872;2023-12-20T09:56:43;96868.91;;;4.38;83.09
3697;BME280;60662;48.810;8.872;2023-12-20T09:57:49;96874.28;;;4.25;83.72
3697;BME280;60662;48.810;8.872;2023-12-20T09:58:51;96870.16;;;4.12;84.81
3697;BME280;60662;48.810;8.872;2023-12-20T09:59:53;96872.78;;;4.11;85.50
3697;BME280;60662;48.810;8.872;2023-12-20T10:00:55;96864.34;;;3.99;85.28
3697;BME280;60662;48.810;8.872;2023-12-20T10:01:57;96882.56;;;3.88;86.62
3697;BME280;60662;48.810;8.872;2023-12-20T10:03:01;96882.59;;;3.87;86.89
3697;BME280;60662;48.810;8.872;2023-12-20T10:04:05;96887.78;;;3.85;87.83
3697;BME280;60662;48.810;8.872;2023-12-20T10:05:17;96873.03;;;3.93;88.35
3697;BME280;60662;48.810;8.872;2023-12-20T10:06:22;96883.50;;;3.84;88.01
3697;BME280;60662;48.810;8.872;2023-12-20T10:07:24;96872.06;;;4.01;88.31
3697;BME280;60662;48.810;8.872;2023-12-20T10:08:26;96866.97;;;3.95;88.86
3697;BME280;60662;48.810;8.872;2023-12-20T10:09:29;96842.44;;;3.66;87.79
3697;BME280;60662;48.810;8.872;2023-12-20T10:10:32;96857.72;;;3.81;88.50
3697;BME280;60662;48.810;8.872;2023-12-20T10:11:46;96857.94;;;3.66;89.19
3697;BME280;60662;48.810;8.872;2023-12-20T10:17:48;96865.59;;;3.70;90.93
3697;BME280;60662;48.810;8.872;2023-12-20T10:18:53;96869.84;;;3.74;89.77
3697;BME280;60662;48.810;8.872;2023-12-20T10:19:54;96866.31;;;3.82;89.41
3697;BME280;60662;48.810;8.872;2023-12-20T10:25:26;96851.31;;;3.46;88.85
3697;BME280;60662;48.810;8.872;2023-12-20T10:26:28;96856.34;;;3.54;88.76
3697;BME280;60662;48.810;8.872;2023-12-20T10:27:31;96855.44;;;3.58;89.23
3697;BME280;60662;48.810;8.872;2023-12-20T10:28:34;96848.50;;;3.63;88.91
3697;BME280;60662;48.810;8.872;2023-12-20T10:29:38;96840.75;;;3.63;88.04
3697;BME280;60662;48.810;8.872;2023-12-20T10:30:41;96857.84;;;3.70;88.09
3697;BME280;60662;48.810;8.872;2023-12-20T10:31:43;96854.47;;;3.67;86.88
3697;BME280;60662;48.810;8.872;2023-12-20T10:38:03;96834.06;;;3.48;85.64
3697;BME280;60662;48.810;8.872;2023-12-20T10:39:07;96843.59;;;3.45;84.30
3697;BME280;60662;48.810;8.872;2023-12-20T10:40:12;96844.38;;;3.50;84.34
3697;BME280;60662;48.810;8.872;2023-12-20T10:41:15;96848.53;;;3.60;84.07
3697;BME280;60662;48.810;8.872;2023-12-20T10:42:21;96846.38;;;3.91;83.44
3697;BME280;60662;48.810;8.872;2023-12-20T10:43:24;96838.66;;;4.41;81.58
3697;BME280;60662;48.810;8.872;2023-12-20T10:44:28;96834.50;;;4.34;82.52
3697;BME280;60662;48.810;8.872;2023-12-20T10:45:30;96839.47;;;4.45;81.43
3697;BME280;60662;48.810;8.872;2023-12-20T10:46:31;96822.84;;;4.08;82.64
3697;BME280;60662;48.810;8.872;2023-12-20T10:47:37;96841.97;;;3.98;83.88
3697;BME280;60662;48.810;8.872;2023-12-20T10:52:42;96833.00;;;3.62;85.26
3697;BME280;60662;48.810;8.872;2023-12-20T10:53:47;96830.38;;;3.66;86.14
3697;BME280;60662;48.810;8.872;2023-12-20T10:54:51;96834.66;;;3.67;86.14
3697;BME280;60662;48.810;8.872;2023-12-20T10:55:55;96834.44;;;3.83;86.27
3697;BME280;60662;48.810;8.872;2023-12-20T11:02:05;96834.63;;;3.69;88.34
3697;BME280;60662;48.810;8.872;2023-12-20T11:06:50;96839.16;;;3.53;88.32
3697;BME280;60662;48.810;8.872;2023-12-20T11:17:15;96823.13;;;3.31;86.48
3697;BME280;60662;48.810;8.872;2023-12-20T11:18:19;96822.13;;;3.39;86.97
3697;BME280;60662;48.810;8.872;2023-12-20T11:23:59;96831.53;;;3.47;86.10
3697;BME280;60662;48.810;8.872;2023-12-20T11:30:05;96822.16;;;3.38;85.98
3697;BME280;60662;48.810;8.872;2023-12-20T11:34:33;96804.09;;;3.38;85.34
3697;BME280;60662;48.810;8.872;2023-12-20T11:43:41;96823.56;;;3.60;85.57
3697;BME280;60662;48.810;8.872;2023-12-20T11:47:14;96818.34;;;3.64;84.57
3697;BME280;60662;48.810;8.872;2023-12-20T11:48:17;96817.44;;;3.68;83.94
3697;BME280;60662;48.810;8.872;2023-12-20T11:52:22;96807.19;;;3.62;83.33
3697;BME280;60662;48.810;8.872;2023-12-20T11:53:24;96799.50;;;3.58;82.84
3697;BME280;60662;48.810;8.872;2023-12-20T11:54:26;96798.41;;;3.72;83.49
3697;BME280;60662;48.810;8.872;2023-12-20T11:55:27;96804.38;;;3.79;83.25
3697;BME280;60662;48.810;8.872;2023-12-20T11:56:28;96790.63;;;3.76;81.80
3697;BME280;60662;48.810;8.872;2023-12-20T11:57:31;96797.44;;;3.82;82.45
3697;BME280;60662;48.810;8.872;2023-12-20T11:58:33;96786.66;;;4.08;82.14
3697;BME280;60662;48.810;8.872;2023-12-20T11:59:36;96790.91;;;4.11;81.09
3697;BME280;60662;48.810;8.872;2023-12-20T12:00:37;96796.72;;;4.24;81.39
3697;BME280;60662;48.810;8.872;2023-12-20T12:01:39;96796.06;;;4.14;80.76
3697;BME280;60662;48.810;8.872;2023-12-20T12:02:41;96800.34;;;4.14;80.98
3697;BME280;60662;48.810;8.872;2023-12-20T12:03:42;96798.06;;;3.97;81.25
3697;BME280;60662;48.810;8.872;2023-12-20T12:04:44;96793.59;;;4.06;81.08
3697;BME280;60662;48.810;8.872;2023-12-20T12:09:12;96792.03;;;3.98;82.87
3697;BME280;60662;48.810;8.872;2023-12-20T12:12:26;96793.84;;;3.89;82.86
3697;BME280;60662;48.810;8.872;2023-12-20T12:13:28;96790.25;;;4.00;82.33
3697;BME280;60662;48.810;8.872;2023-12-20T12:14:30;96798.03;;;3.98;82.29
3697;BME280;60662;48.810;8.872;2023-12-20T12:15:31;96797.22;;;3.96;82.60
3697;BME280;60662;48.810;8.872;2023-12-20T12:16:33;96792.94;;;3.92;82.67
3697;BME280;60662;48.810;8.872;2023-12-20T12:17:35;96794.66;;;3.93;82.84
3697;BME280;60662;48.810;8.872;2023-12-20T12:18:37;96798.03;;;3.98;82.43
3697;BME280;60662;48.810;8.872;2023-12-20T12:19:40;96793.00;;;3.89;82.25
3697;BME280;60662;48.810;8.872;2023-12-20T12:20:42;96789.66;;;4.35;81.63
3697;BME280;60662;48.810;8.872;2023-12-20T12:21:44;96773.91;;;5.35;77.97
3697;BME280;60662;48.810;8.872;2023-12-20T12:22:45;96789.09;;;5.10;76.77
3697;BME280;60662;48.810;8.872;2023-12-20T12:23:48;96788.16;;;4.70;78.41
3697;BME280;60662;48.810;8.872;2023-12-20T12:24:50;96788.31;;;4.63;78.46
3697;BME280;60662;48.810;8.872;2023-12-20T12:25:52;96794.56;;;4.51;79.81
3697;BME280;60662;48.810;8.872;2023-12-20T12:26:57;96792.88;;;4.48;80.19
3697;BME280;60662;48.810;8.872;2023-12-20T12:27:59;96784.47;;;4.35;80.07
3697;BME280;60662;48.810;8.872;2023-12-20T12:29:01;96783.69;;;4.30;80.93
3697;BME280;60662;48.810;8.872;2023-12-20T12:30:04;96778.78;;;4.16;80.89
3697;BME280;60662;48.810;8.872;2023-12-20T12:41:52;96797.75;;;3.59;83.82
3697;BME280;60662;48.810;8.872;2023-12-20T12:54:01;96772.31;;;3.31;84.72
3697;BME280;60662;48.810;8.872;2023-12-20T12:57:40;96778.28;;;3.38;85.00
3697;BME280;60662;48.810;8.872;2023-12-20T12:58:42;96743.97;;;3.30;85.15
3697;BME280;60662;48.810;8.872;2023-12-20T12:59:44;96785.75;;;3.56;84.65
3697;BME280;60662;48.810;8.872;2023-12-20T13:00:47;96779.69;;;3.59;84.24
3697;BME280;60662;48.810;8.872;2023-12-20T13:01:49;96780.66;;;4.08;83.78
3697;BME280;60662;48.810;8.872;2023-12-20T13:02:50;96772.41;;;4.36;81.51
3697;BME280;60662;48.810;8.872;2023-12-20T13:03:53;96775.59;;;4.50;81.68
3697;BME280;60662;48.810;8.872;2023-12-20T13:04:55;96769.06;;;5.20;79.69
3697;BME280;60662;48.810;8.872;2023-12-20T13:05:57;96771.97;;;5.45;78.42
3697;BME280;60662;48.810;8.872;2023-12-20T13:06:59;96766.47;;;5.95;77.38
3697;BME280;60662;48.810;8.872;2023-12-20T13:08:00;96771.34;;;6.09;76.32
3697;BME280;60662;48.810;8.872;2023-12-20T13:09:02;96761.19;;;5.64;75.67
3697;BME280;60662;48.810;8.872;2023-12-20T13:10:04;96763.75;;;5.26;77.31
3697;BME280;60662;48.810;8.872;2023-12-20T13:11:05;96771.06;;;5.07;77.82
3697;BME280;60662;48.810;8.872;2023-12-20T13:12:07;96764.56;;;4.86;78.39
3697;BME280;60662;48.810;8.872;2023-12-20T13:13:09;96768.28;;;5.55;77.28
3697;BME280;60662;48.810;8.872;2023-12-20T13:14:10;96770.00;;;5.93;76.35
3697;BME280;60662;48.810;8.872;2023-12-20T13:15:16;96760.59;;;6.25;74.59
3697;BME280;60662;48.810;8.872;2023-12-20T13:16:18;96752.66;;;6.31;73.59
3697;BME280;60662;48.810;8.872;2023-12-20T13:17:19;96767.50;;;6.26;72.81
3697;BME280;60662;48.810;8.872;2023-12-20T13:18:22;96774.16;;;5.62;74.88
3697;BME280;60662;48.810;8.872;2023-12-20T13:19:23;96778.56;;;5.18;76.45
3697;BME280;60662;48.810;8.872;2023-12-20T13:20:25;96776.84;;;5.18;77.53
3697;BME280;60662;48.810;8.872;2023-12-20T13:21:26;96782.19;;;5.11;77.91
3697;BME280;60662;48.810;8.872;2023-12-20T13:22:28;96795.56;;;4.87;78.15
3697;BME280;60662;48.810;8.872;2023-12-20T13:23:30;96798.31;;;4.81;78.81
3697;BME280;60662;48.810;8.872;2023-12-20T13:24:31;96798.56;;;4.66;78.96
3697;BME280;60662;48.810;8.872;2023-12-20T13:25:33;96797.22;;;4.46;79.66
3697;BME280;60662;48.810;8.872;2023-12-20T13:26:35;96793.69;;;4.50;79.97
3697;BME280;60662;48.810;8.872;2023-12-20T13:27:37;96799.75;;;4.51;79.90
3697;BME280;60662;48.810;8.872;2023-12-20T13:28:38;96790.44;;;4.39;80.51
3697;BME280;60662;48.810;8.872;2023-12-20T13:29:40;96786.88;;;4.46;80.66
3697;BME280;60662;48.810;8.872;2023-12-20T13:30:41;96787.81;;;4.40;80.32
3697;BME280;60662;48.810;8.872;2023-12-20T13:31:43;96791.63;;;4.21;81.12
